sensor_id;sensor_type;location;lat;lon;timestamp;pressure;altitude;pressure_sealevel;temperature;humidity
30714;BME280;17465;47.934;33.430;2023-01-29T02:34:16;57469.17;;;-140.43;98.95
30714;BME280;17465;47.934;33.430;2023-01-29T02:37:02;57469.17;;;-140.43;98.95
30714;BME280;17465;47.934;33.430;2023-01-29T02:39:36;57496.71;;;-140.43;99.27
30714;BME280;17465;47.934;33.430;2023-01-29T02:42:15;57475.52;;;-140.43;99.55
30714;BME280;17465;47.934;33.430;2023-01-29T02:44:58;57482.94;;;-140.43;96.20
30714;BME280;17465;47.934;33.430;2023-01-29T02:47:51;57471.29;;;-140.43;96.26
30714;BME280;17465;47.934;33.430;2023-01-29T02:50:42;57479.76;;;-140.43;95.12
30714;BME280;17465;47.934;33.430;2023-01-29T02:53:14;57479.76;;;-140.43;95.12
30714;BME280;17465;47.934;33.430;2023-01-29T02:58:24;57490.35;;;-140.43;93.72
30714;BME280;17465;47.934;33.430;2023-01-29T03:00:55;57470.23;;;-140.43;93.00
30714;BME280;17465;47.934;33.430;2023-01-29T03:03:39;57476.58;;;-140.43;94.37
30714;BME280;17465;47.934;33.430;2023-01-29T03:06:26;57498.82;;;-140.43;93.38
30714;BME280;17465;47.934;33.430;2023-01-29T03:09:03;57474.46;;;-140.43;93.08
30714;BME280;17465;47.934;33.430;2023-01-29T03:11:38;57474.46;;;-140.43;93.70
30714;BME280;17465;47.934;33.430;2023-01-29T03:14:32;57474.46;;;-140.43;93.70
30714;BME280;17465;47.934;33.430;2023-01-29T03:16:49;57497.77;;;-140.43;94.38
30714;BME280;17465;47.934;33.430;2023-01-29T03:19:40;57497.77;;;-140.43;94.38
30714;BME280;17465;47.934;33.430;2023-01-29T03:22:14;57497.77;;;-140.43;92.95
30714;BME280;17465;47.934;33.430;2023-01-29T03:24:57;57486.12;;;-140.43;91.78
30714;BME280;17465;47.934;33.430;2023-01-29T03:27:40;57486.12;;;-140.43;91.78
30714;BME280;17465;47.934;33.430;2023-01-29T03:30:13;57478.70;;;-140.43;93.23
30714;BME280;17465;47.934;33.430;2023-01-29T03:32:46;57478.70;;;-140.43;93.23
30714;BME280;17465;47.934;33.430;2023-01-29T03:35:22;57489.29;;;-140.43;94.27
30714;BME280;17465;47.934;33.430;2023-01-29T03:37:52;57486.12;;;-140.43;94.07
30714;BME280;17465;47.934;33.430;2023-01-29T03:40:23;57482.94;;;-140.43;92.07
30714;BME280;17465;47.934;33.430;2023-01-29T03:43:13;57473.41;;;-140.43;92.89
30714;BME280;17465;47.934;33.430;2023-01-29T03:48:33;57467.05;;;-140.43;93.93
30714;BME280;17465;47.934;33.430;2023-01-29T03:53:50;57453.28;;;-140.43;93.39
30714;BME280;17465;47.934;33.430;2023-01-29T03:56:31;57497.77;;;-140.43;93.75
30714;BME280;17465;47.934;33.430;2023-01-29T03:59:13;57467.05;;;-140.43;93.75
30714;BME280;17465;47.934;33.430;2023-01-29T04:01:47;57477.64;;;-140.43;93.86
30714;BME280;17465;47.934;33.430;2023-01-29T04:04:35;57477.64;;;-140.43;93.86
30714;BME280;17465;47.934;33.430;2023-01-29T04:07:09;57481.88;;;-140.43;93.75
30714;BME280;17465;47.934;33.430;2023-01-29T04:09:58;57481.88;;;-140.43;93.75
30714;BME280;17465;47.934;33.430;2023-01-29T04:12:41;57479.76;;;-140.43;93.93
30714;BME280;17465;47.934;33.430;2023-01-29T04:15:15;57464.93;;;-140.43;94.50
30714;BME280;17465;47.934;33.430;2023-01-29T04:18:02;57464.93;;;-140.43;94.24
30714;BME280;17465;47.934;33.430;2023-01-29T04:20:34;57464.93;;;-140.43;94.24
30714;BME280;17465;47.934;33.430;2023-01-29T04:23:06;57458.58;;;-140.43;94.25
30714;BME280;17465;47.934;33.430;2023-01-29T04:25:43;57474.46;;;-140.43;94.12
30714;BME280;17465;47.934;33.430;2023-01-29T04:28:22;57474.46;;;-140.43;94.12
30714;BME280;17465;47.934;33.430;2023-01-29T04:31:01;57471.29;;;-140.43;94.31
30714;BME280;17465;47.934;33.430;2023-01-29T04:36:47;57469.17;;;-140.43;95.15
30714;BME280;17465;47.934;33.430;2023-01-29T04:48:00;57477.64;;;-140.43;94.25
30714;BME280;17465;47.934;33.430;2023-01-29T04:50:35;57486.12;;;-140.43;95.63
30714;BME280;17465;47.934;33.430;2023-01-29T04:58:58;57484.00;;;-140.43;94.00
30714;BME280;17465;47.934;33.430;2023-01-29T05:01:29;57461.76;;;-140.43;93.73
30714;BME280;17465;47.934;33.430;2023-01-29T05:04:03;57461.76;;;-140.43;93.73
30714;BME280;17465;47.934;33.430;2023-01-29T05:06:35;57452.23;;;-140.43;92.89
30714;BME280;17465;47.934;33.430;2023-01-29T05:09:08;57452.23;;;-140.43;92.89
30714;BME280;17465;47.934;33.430;2023-01-29T05:11:39;57479.76;;;-140.43;93.27
30714;BME280;17465;47.934;33.430;2023-01-29T05:14:13;57474.46;;;-140.43;94.08
30714;BME280;17465;47.934;33.430;2023-01-29T05:16:46;57461.76;;;-140.43;93.61
30714;BME280;17465;47.934;33.430;2023-01-29T05:19:18;57476.58;;;-140.43;93.73
30714;BME280;17465;47.934;33.430;2023-01-29T05:21:49;57476.58;;;-140.43;93.73
30714;BME280;17465;47.934;33.430;2023-01-29T05:24:22;57429.98;;;-140.43;94.90
30714;BME280;17465;47.934;33.430;2023-01-29T05:26:54;57497.77;;;-140.43;94.05
30714;BME280;17465;47.934;33.430;2023-01-29T05:29:24;57479.76;;;-140.43;92.90
30714;BME280;17465;47.934;33.430;2023-01-29T05:31:55;57476.58;;;-140.43;92.04
30714;BME280;17465;47.934;33.430;2023-01-29T05:34:26;57479.76;;;-140.43;93.54
30714;BME280;17465;47.934;33.430;2023-01-29T05:36:57;57479.76;;;-140.43;93.54
30714;BME280;17465;47.934;33.430;2023-01-29T05:42:10;57479.76;;;-140.43;93.92
30714;BME280;17465;47.934;33.430;2023-01-29T05:44:40;57473.41;;;-140.43;95.68
30714;BME280;17465;47.934;33.430;2023-01-29T05:47:11;57473.41;;;-140.43;95.68
30714;BME280;17465;47.934;33.430;2023-01-29T05:49:41;57489.29;;;-140.43;96.29
30714;BME280;17465;47.934;33.430;2023-01-29T05:52:12;57489.29;;;-140.43;96.29
30714;BME280;17465;47.934;33.430;2023-01-29T05:54:43;57452.23;;;-140.43;96.72
30714;BME280;17465;47.934;33.430;2023-01-29T05:57:14;57491.41;;;-140.43;97.77
30714;BME280;17465;47.934;33.430;2023-01-29T05:59:44;57461.76;;;-140.43;98.48
30714;BME280;17465;47.934;33.430;2023-01-29T06:02:15;57477.64;;;-140.43;98.18
30714;BME280;17465;47.934;33.430;2023-01-29T06:04:45;57477.64;;;-140.43;98.18
30714;BME280;17465;47.934;33.430;2023-01-29T06:07:16;57462.82;;;-140.43;99.64
30714;BME280;17465;47.934;33.430;2023-01-29T06:09:46;57447.99;;;-140.43;99.34
30714;BME280;17465;47.934;33.430;2023-01-29T06:12:17;57467.05;;;-140.43;99.03
30714;BME280;17465;47.934;33.430;2023-01-29T06:14:48;57467.05;;;-140.43;99.03
30714;BME280;17465;47.934;33.430;2023-01-29T06:17:19;57460.70;;;-140.43;98.27
30714;BME280;17465;47.934;33.430;2023-01-29T06:19:49;57473.41;;;-140.43;98.67
30714;BME280;17465;47.934;33.430;2023-01-29T06:22:21;57473.41;;;-140.43;98.67
30714;BME280;17465;47.934;33.430;2023-01-29T06:24:55;57486.12;;;-140.43;97.48
30714;BME280;17465;47.934;33.430;2023-01-29T06:27:26;57486.12;;;-140.43;97.48
30714;BME280;17465;47.934;33.430;2023-01-29T06:29:56;57453.28;;;-140.43;97.47
30714;BME280;17465;47.934;33.430;2023-01-29T06:32:27;57474.46;;;-140.43;99.07
30714;BME280;17465;47.934;33.430;2023-01-29T06:34:59;57464.93;;;-140.43;99.16
30714;BME280;17465;47.934;33.430;2023-01-29T06:37:30;57509.41;;;-140.43;99.12
30714;BME280;17465;47.934;33.430;2023-01-29T06:40:00;57477.64;;;-140.43;98.09
30714;BME280;17465;47.934;33.430;2023-01-29T06:42:33;57456.46;;;-140.43;98.09
30714;BME280;17465;47.934;33.430;2023-01-29T06:45:05;57436.34;;;-140.43;97.54
30714;BME280;17465;47.934;33.430;2023-01-29T06:47:36;57436.34;;;-140.43;97.54
30714;BME280;17465;47.934;33.430;2023-01-29T06:50:08;57459.64;;;-140.43;97.64
30714;BME280;17465;47.934;33.430;2023-01-29T06:52:39;57481.88;;;-140.43;96.89
30714;BME280;17465;47.934;33.430;2023-01-29T06:55:10;57460.70;;;-140.43;97.97
30714;BME280;17465;47.934;33.430;2023-01-29T06:57:42;57460.70;;;-140.43;97.97
30714;BME280;17465;47.934;33.430;2023-01-29T07:00:15;57460.70;;;-140.43;97.27
30714;BME280;17465;47.934;33.430;2023-01-29T07:02:50;57460.70;;;-140.43;97.27
30714;BME280;17465;47.934;33.430;2023-01-29T07:05:20;57494.59;;;-140.43;98.53
30714;BME280;17465;47.934;33.430;2023-01-29T07:07:51;57494.59;;;-140.43;98.53
30714;BME280;17465;47.934;33.430;2023-01-29T07:10:21;57460.70;;;-140.43;98.51
30714;BME280;17465;47.934;33.430;2023-01-29T07:12:52;57480.82;;;-140.43;98.74
30714;BME280;17465;47.934;33.430;2023-01-29T07:15:22;57480.82;;;-140.43;98.74
30714;BME280;17465;47.934;33.430;2023-01-29T07:18:03;57480.82;;;-140.43;98.93
30714;BME280;17465;47.934;33.430;2023-01-29T10:25:38;57506.24;;;-140.43;84.83
30714;BME280;17465;47.934;33.430;2023-01-29T10:28:16;57462.82;;;-140.43;83.06
30714;BME280;17465;47.934;33.430;2023-01-29T10:31:11;57462.82;;;-140.43;83.06
30714;BME280;17465;47.934;33.430;2023-01-29T10:33:47;57470.23;;;-140.43;82.21
30714;BME280;17465;47.934;33.430;2023-01-29T10:36:21;57468.11;;;-140.43;82.19
30714;BME280;17465;47.934;33.430;2023-01-29T10:38:52;57468.11;;;-140.43;82.19
30714;BME280;17465;47.934;33.430;2023-01-29T10:53:47;57452.23;;;-140.43;80.30
30714;BME280;17465;47.934;33.430;2023-01-29T11:01:59;57457.52;;;-140.43;80.90
30714;BME280;17465;47.934;33.430;2023-01-29T11:04:50;57461.76;;;-140.43;80.55
30714;BME280;17465;47.934;33.430;2023-01-29T11:07:26;57447.99;;;-140.43;81.26
30714;BME280;17465;47.934;33.430;2023-01-29T11:12:59;57452.23;;;-140.43;78.69
30714;BME280;17465;47.934;33.430;2023-01-29T11:15:40;57459.64;;;-140.43;77.60
30714;BME280;17465;47.934;33.430;2023-01-29T11:18:20;57418.33;;;-140.43;78.41
30714;BME280;17465;47.934;33.430;2023-01-29T11:21:02;57418.33;;;-140.43;78.41
30714;BME280;17465;47.934;33.430;2023-01-29T11:33:45;57467.05;;;-140.43;75.37
30714;BME280;17465;47.934;33.430;2023-01-29T11:36:42;57478.70;;;-140.43;76.09
30714;BME280;17465;47.934;33.430;2023-01-29T11:39:24;57432.10;;;-140.43;75.65
30714;BME280;17465;47.934;33.430;2023-01-29T11:43:10;57432.10;;;-140.43;75.65
30714;BME280;17465;47.934;33.430;2023-01-29T11:45:55;57468.11;;;-140.43;75.09
30714;BME280;17465;47.934;33.430;2023-01-29T11:55:16;57472.35;;;-140.43;76.69
30714;BME280;17465;47.934;33.430;2023-01-29T11:57:55;57440.57;;;-140.43;77.16
30714;BME280;17465;47.934;33.430;2023-01-29T12:03:33;57440.57;;;-140.43;76.53
30714;BME280;17465;47.934;33.430;2023-01-29T12:25:58;57440.57;;;-140.43;73.28
30714;BME280;17465;47.934;33.430;2023-01-29T12:31:41;57437.39;;;-140.43;73.89
30714;BME280;17465;47.934;33.430;2023-01-29T12:34:19;57456.46;;;-140.43;73.55
30714;BME280;17465;47.934;33.430;2023-01-29T12:36:55;57456.46;;;-140.43;73.55
30714;BME280;17465;47.934;33.430;2023-01-29T12:39:35;57431.04;;;-140.43;72.74
30714;BME280;17465;47.934;33.430;2023-01-29T12:42:14;57494.59;;;-140.43;72.29
30714;BME280;17465;47.934;33.430;2023-01-29T12:50:37;57459.64;;;-140.43;73.51
30714;BME280;17465;47.934;33.430;2023-01-29T12:53:25;57480.82;;;-140.43;72.57
30714;BME280;17465;47.934;33.430;2023-01-29T12:56:08;57452.23;;;-140.43;72.69
30714;BME280;17465;47.934;33.430;2023-01-29T12:58:49;57456.46;;;-140.43;74.28
30714;BME280;17465;47.934;33.430;2023-01-29T13:01:39;57456.46;;;-140.43;74.28
30714;BME280;17465;47.934;33.430;2023-01-29T13:07:29;57465.99;;;-140.43;74.81
30714;BME280;17465;47.934;33.430;2023-01-29T13:10:09;57468.11;;;-140.43;74.05
30714;BME280;17465;47.934;33.430;2023-01-29T13:12:38;57463.87;;;-140.43;75.30
30714;BME280;17465;47.934;33.430;2023-01-29T13:15:30;57459.64;;;-140.43;74.50
30714;BME280;17465;47.934;33.430;2023-01-29T13:20:33;57467.05;;;-140.43;75.01
30714;BME280;17465;47.934;33.430;2023-01-29T13:23:19;57488.23;;;-140.43;75.48
30714;BME280;17465;47.934;33.430;2023-01-29T13:25:53;57488.23;;;-140.43;75.48
30714;BME280;17465;47.934;33.430;2023-01-29T13:28:28;57461.76;;;-140.43;75.31
30714;BME280;17465;47.934;33.430;2023-01-29T13:31:40;57514.71;;;-140.43;77.02
30714;BME280;17465;47.934;33.430;2023-01-29T13:37:35;57481.88;;;-140.43;78.82
30714;BME280;17465;47.934;33.430;2023-01-29T13:40:39;57481.88;;;-140.43;78.82
30714;BME280;17465;47.934;33.430;2023-01-29T13:46:31;57455.40;;;-140.43;79.03
30714;BME280;17465;47.934;33.430;2023-01-29T13:49:44;57429.98;;;-140.43;78.87
30714;BME280;17465;47.934;33.430;2023-01-29T14:06:00;57478.70;;;-140.43;79.63
30714;BME280;17465;47.934;33.430;2023-01-29T14:11:47;57465.99;;;-140.43;79.02
30714;BME280;17465;47.934;33.430;2023-01-29T14:17:37;57488.23;;;-140.43;78.22
30714;BME280;17465;47.934;33.430;2023-01-29T14:20:23;57452.23;;;-140.43;78.04
30714;BME280;17465;47.934;33.430;2023-01-29T14:23:15;57498.82;;;-140.43;79.00
30714;BME280;17465;47.934;33.430;2023-01-29T14:32:22;57485.05;;;-140.43;79.78
30714;BME280;17465;47.934;33.430;2023-01-29T14:35:28;57485.05;;;-140.43;79.78
30714;BME280;17465;47.934;33.430;2023-01-29T14:38:05;57488.23;;;-140.43;77.99
30714;BME280;17465;47.934;33.430;2023-01-29T14:40:40;57481.88;;;-140.43;79.35
30714;BME280;17465;47.934;33.430;2023-01-29T14:49:09;57488.23;;;-140.43;79.52
30714;BME280;17465;47.934;33.430;2023-01-29T14:51:46;57492.47;;;-140.43;78.39
30714;BME280;17465;47.934;33.430;2023-01-29T15:28:37;56791.41;;;-140.43;77.06
30714;BME280;17465;47.934;33.430;2023-01-29T15:32:10;57465.99;;;-140.43;77.26
30714;BME280;17465;47.934;33.430;2023-01-29T15:38:03;57474.46;;;-140.43;77.27
30714;BME280;17465;47.934;33.430;2023-01-29T15:41:15;57493.53;;;-140.43;76.14
30714;BME280;17465;47.934;33.430;2023-01-29T15:43:59;57491.41;;;-140.43;77.17
30714;BME280;17465;47.934;33.430;2023-01-29T15:49:36;57473.41;;;-140.43;77.93
30714;BME280;17465;47.934;33.430;2023-01-29T15:52:27;57505.18;;;-140.43;76.66
30714;BME280;17465;47.934;33.430;2023-01-29T15:58:05;57497.77;;;-140.43;77.29
30714;BME280;17465;47.934;33.430;2023-01-29T16:04:13;57508.36;;;-140.43;77.54
30714;BME280;17465;47.934;33.430;2023-01-29T16:07:26;56789.30;;;-140.43;76.86
30714;BME280;17465;47.934;33.430;2023-01-29T16:10:29;57489.29;;;-140.43;76.88
30714;BME280;17465;47.934;33.430;2023-01-29T16:13:25;57489.29;;;-140.43;76.88
30714;BME280;17465;47.934;33.430;2023-01-29T16:16:33;57468.11;;;-140.43;77.08
30714;BME280;17465;47.934;33.430;2023-01-29T16:22:36;57496.71;;;-140.43;78.05
30714;BME280;17465;47.934;33.430;2023-01-29T16:25:13;57496.71;;;-140.43;78.05
30714;BME280;17465;47.934;33.430;2023-01-29T16:28:20;57472.35;;;-140.43;76.82
30714;BME280;17465;47.934;33.430;2023-01-29T20:16:40;57529.54;;;-140.43;81.99
30714;BME280;17465;47.934;33.430;2023-01-29T20:19:08;57543.31;;;-140.43;81.13
30714;BME280;17465;47.934;33.430;2023-01-29T20:21:41;57543.31;;;-140.43;81.13
30714;BME280;17465;47.934;33.430;2023-01-29T20:24:16;57535.89;;;-140.43;81.92
30714;BME280;17465;47.934;33.430;2023-01-29T20:27:00;57526.36;;;-140.43;81.97
30714;BME280;17465;47.934;33.430;2023-01-29T20:29:47;57548.61;;;-140.43;81.23
30714;BME280;17465;47.934;33.430;2023-01-29T20:32:23;57548.61;;;-140.43;81.23
30714;BME280;17465;47.934;33.430;2023-01-29T20:34:55;57509.41;;;-140.43;81.12
30714;BME280;17465;47.934;33.430;2023-01-29T20:37:46;57509.41;;;-140.43;81.12
30714;BME280;17465;47.934;33.430;2023-01-29T20:40:22;57538.01;;;-140.43;82.23
30714;BME280;17465;47.934;33.430;2023-01-29T20:43:13;57538.01;;;-140.43;82.23
30714;BME280;17465;47.934;33.430;2023-01-29T20:45:44;57536.95;;;-140.43;82.51
30714;BME280;17465;47.934;33.430;2023-01-29T20:48:25;57531.66;;;-140.43;82.02
30714;BME280;17465;47.934;33.430;2023-01-29T20:51:05;57561.31;;;-140.43;82.68
30714;BME280;17465;47.934;33.430;2023-01-29T20:53:45;57541.19;;;-140.43;82.19
30714;BME280;17465;47.934;33.430;2023-01-29T20:56:20;57516.83;;;-140.43;82.54
30714;BME280;17465;47.934;33.430;2023-01-29T21:01:36;56863.42;;;-140.43;81.75
30714;BME280;17465;47.934;33.430;2023-01-29T21:04:12;57539.07;;;-140.43;81.47
30714;BME280;17465;47.934;33.430;2023-01-29T21:06:48;57538.01;;;-140.43;81.45
30714;BME280;17465;47.934;33.430;2023-01-29T21:09:22;57532.72;;;-140.43;81.62
30714;BME280;17465;47.934;33.430;2023-01-29T21:12:17;57545.43;;;-140.43;81.99
30714;BME280;17465;47.934;33.430;2023-01-29T21:14:58;57543.31;;;-140.43;81.69
30714;BME280;17465;47.934;33.430;2023-01-29T21:17:35;57565.55;;;-140.43;82.36
30714;BME280;17465;47.934;33.430;2023-01-29T21:20:09;57551.78;;;-140.43;83.37
30714;BME280;17465;47.934;33.430;2023-01-29T21:23:02;57533.77;;;-140.43;82.62
30714;BME280;17465;47.934;33.430;2023-01-29T21:25:37;57560.25;;;-140.43;83.69
30714;BME280;17465;47.934;33.430;2023-01-29T21:28:15;57575.08;;;-140.43;84.15
30714;BME280;17465;47.934;33.430;2023-01-29T21:30:45;57540.13;;;-140.43;82.63
30714;BME280;17465;47.934;33.430;2023-01-29T21:33:19;57545.43;;;-140.43;82.32
30714;BME280;17465;47.934;33.430;2023-01-29T21:35:57;57563.43;;;-140.43;82.82
30714;BME280;17465;47.934;33.430;2023-01-29T21:38:40;57553.90;;;-140.43;82.93
30714;BME280;17465;47.934;33.430;2023-01-29T21:41:19;57534.84;;;-140.43;82.71
30714;BME280;17465;47.934;33.430;2023-01-29T21:43:55;57523.18;;;-140.43;82.78
30714;BME280;17465;47.934;33.430;2023-01-29T21:46:40;57551.78;;;-140.43;82.51
30714;BME280;17465;47.934;33.430;2023-01-29T21:49:13;57575.08;;;-140.43;83.19
30714;BME280;17465;47.934;33.430;2023-01-29T21:51:46;57527.42;;;-140.43;82.55
30714;BME280;17465;47.934;33.430;2023-01-29T21:54:19;57542.25;;;-140.43;83.04
30714;BME280;17465;47.934;33.430;2023-01-29T21:56:54;57531.66;;;-140.43;83.16
30714;BME280;17465;47.934;33.430;2023-01-29T22:08:09;57544.37;;;-140.43;82.87
30714;BME280;17465;47.934;33.430;2023-01-29T22:10:44;57575.08;;;-140.43;83.07
30714;BME280;17465;47.934;33.430;2023-01-29T22:13:15;57526.36;;;-140.43;82.88
30714;BME280;17465;47.934;33.430;2023-01-29T22:18:50;57530.60;;;-140.43;82.90
30714;BME280;17465;47.934;33.430;2023-01-29T22:21:25;57546.48;;;-140.43;82.82
30714;BME280;17465;47.934;33.430;2023-01-29T22:23:58;57545.43;;;-140.43;83.25
30714;BME280;17465;47.934;33.430;2023-01-29T22:26:37;57534.84;;;-140.43;83.39
30714;BME280;17465;47.934;33.430;2023-01-29T22:29:19;57534.84;;;-140.43;83.39
30714;BME280;17465;47.934;33.430;2023-01-29T22:31:53;57539.07;;;-140.43;82.90
30714;BME280;17465;47.934;33.430;2023-01-29T22:34:23;57544.37;;;-140.43;82.74
30714;BME280;17465;47.934;33.430;2023-01-29T22:37:06;57547.54;;;-140.43;82.60
30714;BME280;17465;47.934;33.430;2023-01-29T22:39:38;57553.90;;;-140.43;82.25
30714;BME280;17465;47.934;33.430;2023-01-29T22:42:18;57526.36;;;-140.43;82.73
30714;BME280;17465;47.934;33.430;2023-01-29T22:44:46;57569.79;;;-140.43;83.18
30714;BME280;17465;47.934;33.430;2023-01-29T22:47:26;57550.72;;;-140.43;83.18
30714;BME280;17465;47.934;33.430;2023-01-29T22:49:56;57543.31;;;-140.43;82.67
30714;BME280;17465;47.934;33.430;2023-01-29T22:52:31;57528.48;;;-140.43;82.73
30714;BME280;17465;47.934;33.430;2023-01-29T22:55:08;57556.02;;;-140.43;83.37
30714;BME280;17465;47.934;33.430;2023-01-29T22:57:46;57553.90;;;-140.43;81.64
30714;BME280;17465;47.934;33.430;2023-01-29T23:00:16;57553.90;;;-140.43;81.64
30714;BME280;17465;47.934;33.430;2023-01-29T23:02:50;57567.67;;;-140.43;82.07
30714;BME280;17465;47.934;33.430;2023-01-29T23:05:19;57544.37;;;-140.43;82.12
30714;BME280;17465;47.934;33.430;2023-01-29T23:07:56;57544.37;;;-140.43;82.12
30714;BME280;17465;47.934;33.430;2023-01-29T23:10:26;57541.19;;;-140.43;82.02
30714;BME280;17465;47.934;33.430;2023-01-29T23:13:07;57527.42;;;-140.43;82.65
30714;BME280;17465;47.934;33.430;2023-01-29T23:15:32;57579.32;;;-140.43;82.45
30714;BME280;17465;47.934;33.430;2023-01-29T23:18:05;57571.90;;;-140.43;82.22
30714;BME280;17465;47.934;33.430;2023-01-29T23:20:37;57578.26;;;-140.43;82.70
30714;BME280;17465;47.934;33.430;2023-01-29T23:23:11;57565.55;;;-140.43;82.73
30714;BME280;17465;47.934;33.430;2023-01-29T23:25:42;57551.78;;;-140.43;82.58
30714;BME280;17465;47.934;33.430;2023-01-29T23:28:12;57558.13;;;-140.43;82.17
30714;BME280;17465;47.934;33.430;2023-01-29T23:30:43;57569.79;;;-140.43;81.12
30714;BME280;17465;47.934;33.430;2023-01-29T23:33:14;57559.20;;;-140.43;82.38
30714;BME280;17465;47.934;33.430;2023-01-29T23:38:37;57530.60;;;-140.43;82.11
30714;BME280;17465;47.934;33.430;2023-01-29T23:41:22;57541.19;;;-140.43;82.26
30714;BME280;17465;47.934;33.430;2023-01-29T23:43:56;57541.19;;;-140.43;82.26
30714;BME280;17465;47.934;33.430;2023-01-29T23:46:26;57565.55;;;-140.43;82.01
30714;BME280;17465;47.934;33.430;2023-01-29T23:48:56;57565.55;;;-140.43;82.01
30714;BME280;17465;47.934;33.430;2023-01-29T23:51:27;57559.20;;;-140.43;82.34
30714;BME280;17465;47.934;33.430;2023-01-29T23:53:58;57543.31;;;-140.43;82.16
30714;BME280;17465;47.934;33.430;2023-01-29T23:56:36;57543.31;;;-140.43;82.16
30714;BME280;17465;47.934;33.430;2023-01-29T23:59:11;57531.66;;;-140.43;82.39
